sensor_id;sensor_type;location;lat;lon;timestamp;P1;durP1;ratioP1;P2;durP2;ratioP2
63818;SDS011;49970;54.976;73.248;2022-11-27T00:01:30;66.40;;;25.92;;
63818;SDS011;49970;54.976;73.248;2022-11-27T00:03:58;52.10;;;23.27;;
63818;SDS011;49970;54.976;73.248;2022-11-27T00:06:26;67.88;;;24.33;;
63818;SDS011;49970;54.976;73.248;2022-11-27T00:08:56;84.47;;;25.00;;
63818;SDS011;49970;54.976;73.248;2022-11-27T00:11:24;52.35;;;22.85;;
63818;SDS011;49970;54.976;73.248;2022-11-27T00:13:52;55.35;;;23.70;;
63818;SDS011;49970;54.976;73.248;2022-11-27T00:16:19;64.32;;;24.77;;
63818;SDS011;49970;54.976;73.248;2022-11-27T00:18:51;60.38;;;26.45;;
63818;SDS011;49970;54.976;73.248;2022-11-27T00:21:27;61.83;;;23.77;;
63818;SDS011;49970;54.976;73.248;2022-11-27T00:23:55;47.33;;;23.42;;
63818;SDS011;49970;54.976;73.248;2022-11-27T00:26:23;62.13;;;23.45;;
63818;SDS011;49970;54.976;73.248;2022-11-27T00:28:51;49.78;;;22.52;;
63818;SDS011;49970;54.976;73.248;2022-11-27T00:31:19;54.60;;;22.65;;
63818;SDS011;49970;54.976;73.248;2022-11-27T00:33:58;62.95;;;21.83;;
63818;SDS011;49970;54.976;73.248;2022-11-27T00:36:26;48.47;;;19.83;;
63818;SDS011;49970;54.976;73.248;2022-11-27T00:38:54;40.53;;;19.70;;
63818;SDS011;49970;54.976;73.248;2022-11-27T00:41:21;54.55;;;20.30;;
63818;SDS011;49970;54.976;73.248;2022-11-27T00:43:54;53.95;;;20.88;;
63818;SDS011;49970;54.976;73.248;2022-11-27T00:46:24;53.90;;;21.77;;
63818;SDS011;49970;54.976;73.248;2022-11-27T00:48:52;52.78;;;19.58;;
63818;SDS011;49970;54.976;73.248;2022-11-27T00:51:19;36.60;;;18.50;;
63818;SDS011;49970;54.976;73.248;2022-11-27T00:53:51;39.70;;;20.48;;
63818;SDS011;49970;54.976;73.248;2022-11-27T00:56:19;63.30;;;21.70;;
63818;SDS011;49970;54.976;73.248;2022-11-27T00:58:48;51.20;;;21.88;;
63818;SDS011;49970;54.976;73.248;2022-11-27T01:01:16;43.92;;;19.25;;
63818;SDS011;49970;54.976;73.248;2022-11-27T01:03:44;56.38;;;21.02;;
63818;SDS011;49970;54.976;73.248;2022-11-27T01:06:11;45.08;;;19.92;;
63818;SDS011;49970;54.976;73.248;2022-11-27T01:08:38;42.47;;;17.83;;
63818;SDS011;49970;54.976;73.248;2022-11-27T01:11:05;34.17;;;17.15;;
63818;SDS011;49970;54.976;73.248;2022-11-27T01:13:33;48.38;;;20.33;;
63818;SDS011;49970;54.976;73.248;2022-11-27T01:16:05;42.50;;;19.60;;
63818;SDS011;49970;54.976;73.248;2022-11-27T01:18:34;44.33;;;19.20;;
63818;SDS011;49970;54.976;73.248;2022-11-27T01:21:04;58.17;;;20.73;;
63818;SDS011;49970;54.976;73.248;2022-11-27T01:23:31;54.58;;;21.20;;
63818;SDS011;49970;54.976;73.248;2022-11-27T01:26:05;43.67;;;19.88;;
63818;SDS011;49970;54.976;73.248;2022-11-27T01:28:33;62.13;;;18.65;;
63818;SDS011;49970;54.976;73.248;2022-11-27T01:31:07;44.30;;;20.02;;
63818;SDS011;49970;54.976;73.248;2022-11-27T01:33:46;56.05;;;20.48;;
63818;SDS011;49970;54.976;73.248;2022-11-27T01:36:14;60.50;;;19.40;;
63818;SDS011;49970;54.976;73.248;2022-11-27T01:38:51;53.88;;;21.02;;
63818;SDS011;49970;54.976;73.248;2022-11-27T01:41:19;57.03;;;23.05;;
63818;SDS011;49970;54.976;73.248;2022-11-27T01:43:54;49.80;;;21.58;;
63818;SDS011;49970;54.976;73.248;2022-11-27T01:46:40;59.42;;;20.55;;
63818;SDS011;49970;54.976;73.248;2022-11-27T01:51:39;41.10;;;19.85;;
63818;SDS011;49970;54.976;73.248;2022-11-27T01:54:16;55.58;;;20.75;;
63818;SDS011;49970;54.976;73.248;2022-11-27T01:56:45;55.38;;;22.42;;
63818;SDS011;49970;54.976;73.248;2022-11-27T01:59:19;52.53;;;21.60;;
63818;SDS011;49970;54.976;73.248;2022-11-27T02:01:53;51.00;;;18.58;;
63818;SDS011;49970;54.976;73.248;2022-11-27T02:04:19;55.55;;;20.58;;
63818;SDS011;49970;54.976;73.248;2022-11-27T02:06:51;62.47;;;23.95;;
63818;SDS011;49970;54.976;73.248;2022-11-27T02:09:21;65.15;;;21.23;;
63818;SDS011;49970;54.976;73.248;2022-11-27T02:11:55;59.45;;;20.08;;
63818;SDS011;49970;54.976;73.248;2022-11-27T02:14:53;69.72;;;24.05;;
63818;SDS011;49970;54.976;73.248;2022-11-27T02:17:51;75.85;;;27.95;;
63818;SDS011;49970;54.976;73.248;2022-11-27T02:29:05;60.38;;;21.98;;
63818;SDS011;49970;54.976;73.248;2022-11-27T02:31:39;60.58;;;23.08;;
63818;SDS011;49970;54.976;73.248;2022-11-27T02:37:16;61.13;;;20.90;;
63818;SDS011;49970;54.976;73.248;2022-11-27T02:42:58;63.55;;;24.33;;
63818;SDS011;49970;54.976;73.248;2022-11-27T02:45:38;61.70;;;24.90;;
63818;SDS011;49970;54.976;73.248;2022-11-27T02:48:07;85.32;;;28.02;;
63818;SDS011;49970;54.976;73.248;2022-11-27T02:50:35;86.65;;;29.25;;
63818;SDS011;49970;54.976;73.248;2022-11-27T02:53:06;89.47;;;30.70;;
63818;SDS011;49970;54.976;73.248;2022-11-27T02:55:41;98.90;;;29.73;;
63818;SDS011;49970;54.976;73.248;2022-11-27T02:58:12;101.25;;;30.90;;
63818;SDS011;49970;54.976;73.248;2022-11-27T03:00:41;95.00;;;30.80;;
63818;SDS011;49970;54.976;73.248;2022-11-27T03:03:15;101.45;;;30.73;;
63818;SDS011;49970;54.976;73.248;2022-11-27T03:05:52;90.97;;;30.45;;
63818;SDS011;49970;54.976;73.248;2022-11-27T03:08:32;93.65;;;29.25;;
63818;SDS011;49970;54.976;73.248;2022-11-27T03:11:13;99.20;;;30.13;;
63818;SDS011;49970;54.976;73.248;2022-11-27T03:13:41;98.63;;;29.05;;
63818;SDS011;49970;54.976;73.248;2022-11-27T03:19:11;109.03;;;34.92;;
63818;SDS011;49970;54.976;73.248;2022-11-27T03:22:00;134.02;;;40.55;;
63818;SDS011;49970;54.976;73.248;2022-11-27T03:24:28;132.23;;;41.83;;
63818;SDS011;49970;54.976;73.248;2022-11-27T03:27:04;140.40;;;48.97;;
63818;SDS011;49970;54.976;73.248;2022-11-27T03:29:33;133.55;;;43.47;;
63818;SDS011;49970;54.976;73.248;2022-11-27T03:32:04;207.25;;;73.65;;
63818;SDS011;49970;54.976;73.248;2022-11-27T03:34:31;138.93;;;47.90;;
63818;SDS011;49970;54.976;73.248;2022-11-27T03:36:59;110.80;;;41.00;;
63818;SDS011;49970;54.976;73.248;2022-11-27T03:39:35;99.63;;;36.83;;
63818;SDS011;49970;54.976;73.248;2022-11-27T03:42:15;97.93;;;35.70;;
63818;SDS011;49970;54.976;73.248;2022-11-27T03:59:13;200.80;;;74.07;;
63818;SDS011;49970;54.976;73.248;2022-11-27T04:03:03;156.55;;;64.22;;
63818;SDS011;49970;54.976;73.248;2022-11-27T04:06:53;140.40;;;56.80;;
63818;SDS011;49970;54.976;73.248;2022-11-27T04:09:19;133.13;;;51.35;;
63818;SDS011;49970;54.976;73.248;2022-11-27T04:11:46;142.32;;;52.45;;
63818;SDS011;49970;54.976;73.248;2022-11-27T04:14:12;143.60;;;53.20;;
63818;SDS011;49970;54.976;73.248;2022-11-27T04:16:38;144.27;;;58.03;;
63818;SDS011;49970;54.976;73.248;2022-11-27T04:21:22;168.68;;;60.58;;
63818;SDS011;49970;54.976;73.248;2022-11-27T04:25:14;148.40;;;60.90;;
63818;SDS011;49970;54.976;73.248;2022-11-27T04:29:03;169.85;;;66.95;;
63818;SDS011;49970;54.976;73.248;2022-11-27T04:31:35;153.25;;;62.40;;
63818;SDS011;49970;54.976;73.248;2022-11-27T04:34:01;168.50;;;68.88;;
63818;SDS011;49970;54.976;73.248;2022-11-27T04:36:27;183.23;;;69.47;;
63818;SDS011;49970;54.976;73.248;2022-11-27T04:39:02;177.57;;;68.53;;
63818;SDS011;49970;54.976;73.248;2022-11-27T04:41:38;198.68;;;71.22;;
63818;SDS011;49970;54.976;73.248;2022-11-27T04:44:05;209.73;;;78.75;;
63818;SDS011;49970;54.976;73.248;2022-11-27T04:46:31;195.80;;;75.60;;
63818;SDS011;49970;54.976;73.248;2022-11-27T04:49:10;206.32;;;81.28;;
63818;SDS011;49970;54.976;73.248;2022-11-27T04:51:36;157.75;;;56.97;;
63818;SDS011;49970;54.976;73.248;2022-11-27T04:55:27;169.23;;;54.85;;
63818;SDS011;49970;54.976;73.248;2022-11-27T04:57:54;149.45;;;55.20;;
63818;SDS011;49970;54.976;73.248;2022-11-27T05:00:30;156.43;;;52.33;;
63818;SDS011;49970;54.976;73.248;2022-11-27T05:02:56;147.27;;;60.67;;
63818;SDS011;49970;54.976;73.248;2022-11-27T05:05:27;151.45;;;55.38;;
63818;SDS011;49970;54.976;73.248;2022-11-27T05:07:54;155.27;;;64.07;;
63818;SDS011;49970;54.976;73.248;2022-11-27T05:10:20;167.15;;;60.42;;
63818;SDS011;49970;54.976;73.248;2022-11-27T05:12:47;153.02;;;55.13;;
63818;SDS011;49970;54.976;73.248;2022-11-27T05:15:14;117.05;;;46.33;;
63818;SDS011;49970;54.976;73.248;2022-11-27T05:17:45;107.35;;;42.67;;
63818;SDS011;49970;54.976;73.248;2022-11-27T05:20:16;94.93;;;36.08;;
63818;SDS011;49970;54.976;73.248;2022-11-27T05:22:42;90.25;;;31.13;;
63818;SDS011;49970;54.976;73.248;2022-11-27T05:25:09;89.80;;;33.95;;
63818;SDS011;49970;54.976;73.248;2022-11-27T05:27:37;86.43;;;32.53;;
63818;SDS011;49970;54.976;73.248;2022-11-27T05:30:04;93.70;;;36.58;;
63818;SDS011;49970;54.976;73.248;2022-11-27T05:32:30;103.78;;;38.05;;
63818;SDS011;49970;54.976;73.248;2022-11-27T05:34:57;90.88;;;36.10;;
63818;SDS011;49970;54.976;73.248;2022-11-27T05:37:23;104.13;;;37.78;;
63818;SDS011;49970;54.976;73.248;2022-11-27T05:39:49;91.30;;;37.35;;
63818;SDS011;49970;54.976;73.248;2022-11-27T05:42:15;82.75;;;31.25;;
63818;SDS011;49970;54.976;73.248;2022-11-27T05:44:52;98.47;;;37.70;;
63818;SDS011;49970;54.976;73.248;2022-11-27T05:47:18;94.65;;;36.13;;
63818;SDS011;49970;54.976;73.248;2022-11-27T05:49:49;104.78;;;34.47;;
63818;SDS011;49970;54.976;73.248;2022-11-27T05:52:15;98.15;;;37.80;;
63818;SDS011;49970;54.976;73.248;2022-11-27T05:54:42;101.70;;;35.88;;
63818;SDS011;49970;54.976;73.248;2022-11-27T05:57:08;97.60;;;34.72;;
63818;SDS011;49970;54.976;73.248;2022-11-27T05:59:44;72.13;;;29.23;;
63818;SDS011;49970;54.976;73.248;2022-11-27T06:02:10;94.00;;;31.20;;
63818;SDS011;49970;54.976;73.248;2022-11-27T06:04:41;76.72;;;26.67;;
63818;SDS011;49970;54.976;73.248;2022-11-27T06:07:08;69.55;;;25.38;;
63818;SDS011;49970;54.976;73.248;2022-11-27T06:09:36;77.18;;;25.20;;
63818;SDS011;49970;54.976;73.248;2022-11-27T06:12:02;84.95;;;25.02;;
63818;SDS011;49970;54.976;73.248;2022-11-27T06:14:29;56.90;;;22.98;;
63818;SDS011;49970;54.976;73.248;2022-11-27T06:16:56;71.38;;;25.00;;
63818;SDS011;49970;54.976;73.248;2022-11-27T06:19:23;75.97;;;25.27;;
63818;SDS011;49970;54.976;73.248;2022-11-27T06:21:49;85.07;;;26.15;;
63818;SDS011;49970;54.976;73.248;2022-11-27T06:24:15;72.53;;;24.15;;
63818;SDS011;49970;54.976;73.248;2022-11-27T06:26:41;57.08;;;22.33;;
63818;SDS011;49970;54.976;73.248;2022-11-27T06:29:08;56.53;;;21.95;;
63818;SDS011;49970;54.976;73.248;2022-11-27T06:31:34;61.97;;;23.05;;
63818;SDS011;49970;54.976;73.248;2022-11-27T06:34:01;73.35;;;24.45;;
63818;SDS011;49970;54.976;73.248;2022-11-27T06:36:30;79.38;;;26.80;;
63818;SDS011;49970;54.976;73.248;2022-11-27T06:39:09;55.65;;;21.27;;
63818;SDS011;49970;54.976;73.248;2022-11-27T06:41:38;59.53;;;20.08;;
63818;SDS011;49970;54.976;73.248;2022-11-27T06:44:05;64.53;;;22.58;;
63818;SDS011;49970;54.976;73.248;2022-11-27T06:46:31;51.35;;;19.52;;
63818;SDS011;49970;54.976;73.248;2022-11-27T06:48:58;55.88;;;21.13;;
63818;SDS011;49970;54.976;73.248;2022-11-27T06:51:26;61.50;;;20.00;;
63818;SDS011;49970;54.976;73.248;2022-11-27T06:53:54;59.60;;;19.33;;
63818;SDS011;49970;54.976;73.248;2022-11-27T06:56:22;39.75;;;17.67;;
63818;SDS011;49970;54.976;73.248;2022-11-27T06:58:53;50.05;;;20.10;;
63818;SDS011;49970;54.976;73.248;2022-11-27T07:01:21;46.00;;;19.02;;
63818;SDS011;49970;54.976;73.248;2022-11-27T07:03:49;44.60;;;18.75;;
63818;SDS011;49970;54.976;73.248;2022-11-27T07:06:19;44.15;;;19.42;;
63818;SDS011;49970;54.976;73.248;2022-11-27T07:08:58;50.00;;;19.52;;
63818;SDS011;49970;54.976;73.248;2022-11-27T07:11:25;49.90;;;18.95;;
63818;SDS011;49970;54.976;73.248;2022-11-27T07:13:53;40.15;;;18.48;;
63818;SDS011;49970;54.976;73.248;2022-11-27T07:16:21;38.85;;;17.33;;
63818;SDS011;49970;54.976;73.248;2022-11-27T07:18:59;40.33;;;17.10;;
63818;SDS011;49970;54.976;73.248;2022-11-27T07:21:28;47.05;;;18.10;;
63818;SDS011;49970;54.976;73.248;2022-11-27T07:23:54;47.88;;;18.90;;
63818;SDS011;49970;54.976;73.248;2022-11-27T07:26:25;41.72;;;19.45;;
63818;SDS011;49970;54.976;73.248;2022-11-27T07:28:53;62.65;;;21.10;;
63818;SDS011;49970;54.976;73.248;2022-11-27T07:31:21;52.63;;;23.45;;
63818;SDS011;49970;54.976;73.248;2022-11-27T07:33:51;47.58;;;19.70;;
63818;SDS011;49970;54.976;73.248;2022-11-27T07:36:23;38.97;;;18.75;;
63818;SDS011;49970;54.976;73.248;2022-11-27T07:38:56;61.70;;;18.63;;
63818;SDS011;49970;54.976;73.248;2022-11-27T07:41:28;49.25;;;20.70;;
63818;SDS011;49970;54.976;73.248;2022-11-27T07:43:54;58.40;;;20.95;;
63818;SDS011;49970;54.976;73.248;2022-11-27T07:46:25;50.95;;;22.13;;
63818;SDS011;49970;54.976;73.248;2022-11-27T07:48:57;49.67;;;22.08;;
63818;SDS011;49970;54.976;73.248;2022-11-27T07:51:26;63.08;;;21.90;;
63818;SDS011;49970;54.976;73.248;2022-11-27T07:53:52;51.53;;;19.77;;
63818;SDS011;49970;54.976;73.248;2022-11-27T07:56:29;42.95;;;18.65;;
63818;SDS011;49970;54.976;73.248;2022-11-27T07:58:56;39.58;;;19.95;;
63818;SDS011;49970;54.976;73.248;2022-11-27T08:01:23;43.15;;;16.63;;
63818;SDS011;49970;54.976;73.248;2022-11-27T08:03:49;48.13;;;18.15;;
63818;SDS011;49970;54.976;73.248;2022-11-27T08:06:19;39.47;;;17.70;;
63818;SDS011;49970;54.976;73.248;2022-11-27T08:08:56;42.00;;;17.08;;
63818;SDS011;49970;54.976;73.248;2022-11-27T08:11:24;36.60;;;15.30;;
63818;SDS011;49970;54.976;73.248;2022-11-27T08:14:03;24.20;;;14.27;;
63818;SDS011;49970;54.976;73.248;2022-11-27T08:16:37;30.33;;;13.63;;
63818;SDS011;49970;54.976;73.248;2022-11-27T08:19:03;33.28;;;15.38;;
63818;SDS011;49970;54.976;73.248;2022-11-27T08:21:30;26.83;;;14.20;;
63818;SDS011;49970;54.976;73.248;2022-11-27T08:23:57;23.67;;;14.73;;
63818;SDS011;49970;54.976;73.248;2022-11-27T08:26:23;41.15;;;15.02;;
63818;SDS011;49970;54.976;73.248;2022-11-27T08:28:52;35.45;;;15.07;;
63818;SDS011;49970;54.976;73.248;2022-11-27T08:31:18;32.50;;;14.48;;
63818;SDS011;49970;54.976;73.248;2022-11-27T08:33:52;23.95;;;12.85;;
63818;SDS011;49970;54.976;73.248;2022-11-27T08:36:26;47.10;;;14.75;;
63818;SDS011;49970;54.976;73.248;2022-11-27T08:38:53;27.65;;;13.23;;
63818;SDS011;49970;54.976;73.248;2022-11-27T08:41:20;24.13;;;11.88;;
63818;SDS011;49970;54.976;73.248;2022-11-27T08:43:52;27.08;;;13.45;;
63818;SDS011;49970;54.976;73.248;2022-11-27T08:46:19;23.00;;;11.38;;
63818;SDS011;49970;54.976;73.248;2022-11-27T08:48:45;28.80;;;12.90;;
63818;SDS011;49970;54.976;73.248;2022-11-27T08:51:12;22.35;;;10.15;;
63818;SDS011;49970;54.976;73.248;2022-11-27T08:53:40;24.38;;;11.43;;
63818;SDS011;49970;54.976;73.248;2022-11-27T08:56:17;22.90;;;10.75;;
63818;SDS011;49970;54.976;73.248;2022-11-27T08:58:45;23.63;;;10.50;;
63818;SDS011;49970;54.976;73.248;2022-11-27T09:01:30;17.58;;;9.75;;
63818;SDS011;49970;54.976;73.248;2022-11-27T09:03:57;18.25;;;9.93;;
63818;SDS011;49970;54.976;73.248;2022-11-27T09:06:24;15.15;;;10.50;;
63818;SDS011;49970;54.976;73.248;2022-11-27T09:08:58;36.28;;;12.77;;
63818;SDS011;49970;54.976;73.248;2022-11-27T09:11:26;28.45;;;11.38;;
63818;SDS011;49970;54.976;73.248;2022-11-27T09:13:53;27.40;;;12.77;;
63818;SDS011;49970;54.976;73.248;2022-11-27T09:16:20;36.08;;;12.25;;
63818;SDS011;49970;54.976;73.248;2022-11-27T09:18:57;19.90;;;12.00;;
63818;SDS011;49970;54.976;73.248;2022-11-27T09:21:24;19.92;;;12.27;;
63818;SDS011;49970;54.976;73.248;2022-11-27T09:23:52;26.70;;;13.32;;
63818;SDS011;49970;54.976;73.248;2022-11-27T09:26:20;26.95;;;11.75;;
63818;SDS011;49970;54.976;73.248;2022-11-27T09:28:58;28.90;;;12.43;;
63818;SDS011;49970;54.976;73.248;2022-11-27T09:31:24;21.05;;;12.20;;
63818;SDS011;49970;54.976;73.248;2022-11-27T09:33:51;32.38;;;15.13;;
63818;SDS011;49970;54.976;73.248;2022-11-27T09:36:18;49.60;;;20.50;;
63818;SDS011;49970;54.976;73.248;2022-11-27T09:38:46;43.55;;;17.67;;
63818;SDS011;49970;54.976;73.248;2022-11-27T09:41:25;52.78;;;21.08;;
63818;SDS011;49970;54.976;73.248;2022-11-27T09:44:23;56.83;;;17.90;;
63818;SDS011;49970;54.976;73.248;2022-11-27T09:47:03;24.77;;;12.63;;
63818;SDS011;49970;54.976;73.248;2022-11-27T09:49:47;39.03;;;15.68;;
63818;SDS011;49970;54.976;73.248;2022-11-27T09:55:33;30.55;;;12.75;;
63818;SDS011;49970;54.976;73.248;2022-11-27T09:58:21;30.67;;;14.82;;
63818;SDS011;49970;54.976;73.248;2022-11-27T10:01:25;27.85;;;14.88;;
63818;SDS011;49970;54.976;73.248;2022-11-27T10:03:53;36.95;;;16.38;;
63818;SDS011;49970;54.976;73.248;2022-11-27T10:12:12;34.28;;;13.18;;
63818;SDS011;49970;54.976;73.248;2022-11-27T10:17:39;30.25;;;13.57;;
63818;SDS011;49970;54.976;73.248;2022-11-27T10:20:24;39.38;;;14.98;;
63818;SDS011;49970;54.976;73.248;2022-11-27T10:25:49;29.83;;;14.75;;
63818;SDS011;49970;54.976;73.248;2022-11-27T10:31:24;38.08;;;16.50;;
63818;SDS011;49970;54.976;73.248;2022-11-27T10:34:39;46.63;;;16.35;;
63818;SDS011;49970;54.976;73.248;2022-11-27T10:36:55;36.72;;;17.00;;
63818;SDS011;49970;54.976;73.248;2022-11-27T10:39:34;48.22;;;17.58;;
63818;SDS011;49970;54.976;73.248;2022-11-27T10:42:07;51.08;;;19.55;;
63818;SDS011;49970;54.976;73.248;2022-11-27T10:44:44;60.47;;;22.48;;
63818;SDS011;49970;54.976;73.248;2022-11-27T10:47:15;64.68;;;22.95;;
63818;SDS011;49970;54.976;73.248;2022-11-27T10:49:53;65.32;;;24.30;;
63818;SDS011;49970;54.976;73.248;2022-11-27T10:52:30;86.60;;;27.60;;
63818;SDS011;49970;54.976;73.248;2022-11-27T10:54:57;71.90;;;29.55;;
63818;SDS011;49970;54.976;73.248;2022-11-27T11:00:39;87.35;;;27.92;;
63818;SDS011;49970;54.976;73.248;2022-11-27T11:03:15;76.05;;;24.63;;
63818;SDS011;49970;54.976;73.248;2022-11-27T11:05:53;72.97;;;23.27;;
63818;SDS011;49970;54.976;73.248;2022-11-27T11:08:26;62.83;;;24.77;;
63818;SDS011;49970;54.976;73.248;2022-11-27T11:13:59;56.15;;;21.52;;
63818;SDS011;49970;54.976;73.248;2022-11-27T11:16:21;48.55;;;19.63;;
63818;SDS011;49970;54.976;73.248;2022-11-27T11:18:53;62.33;;;17.90;;
63818;SDS011;49970;54.976;73.248;2022-11-27T11:21:38;41.35;;;16.50;;
63818;SDS011;49970;54.976;73.248;2022-11-27T11:24:33;50.92;;;22.55;;
63818;SDS011;49970;54.976;73.248;2022-11-27T11:30:17;49.15;;;20.63;;
63818;SDS011;49970;54.976;73.248;2022-11-27T11:33:00;59.03;;;21.50;;
63818;SDS011;49970;54.976;73.248;2022-11-27T11:35:32;46.78;;;18.70;;
63818;SDS011;49970;54.976;73.248;2022-11-27T11:38:00;67.50;;;20.50;;
63818;SDS011;49970;54.976;73.248;2022-11-27T11:40:30;46.38;;;17.77;;
63818;SDS011;49970;54.976;73.248;2022-11-27T11:43:03;44.25;;;18.35;;
63818;SDS011;49970;54.976;73.248;2022-11-27T11:45:42;44.75;;;18.20;;
63818;SDS011;49970;54.976;73.248;2022-11-27T11:48:24;40.10;;;18.98;;
63818;SDS011;49970;54.976;73.248;2022-11-27T12:04:19;70.65;;;26.85;;
63818;SDS011;49970;54.976;73.248;2022-11-27T12:07:35;74.22;;;30.02;;
63818;SDS011;49970;54.976;73.248;2022-11-27T12:16:05;128.00;;;49.55;;
63818;SDS011;49970;54.976;73.248;2022-11-27T12:33:39;143.27;;;47.78;;
63818;SDS011;49970;54.976;73.248;2022-11-27T12:39:24;148.15;;;51.63;;
63818;SDS011;49970;54.976;73.248;2022-11-27T12:42:14;159.77;;;54.42;;
63818;SDS011;49970;54.976;73.248;2022-11-27T12:44:49;170.60;;;63.47;;
63818;SDS011;49970;54.976;73.248;2022-11-27T12:50:27;148.38;;;52.08;;
63818;SDS011;49970;54.976;73.248;2022-11-27T12:53:17;129.57;;;47.08;;
63818;SDS011;49970;54.976;73.248;2022-11-27T12:55:57;108.28;;;40.58;;
63818;SDS011;49970;54.976;73.248;2022-11-27T12:58:36;130.90;;;43.05;;
63818;SDS011;49970;54.976;73.248;2022-11-27T13:01:29;113.78;;;50.05;;
63818;SDS011;49970;54.976;73.248;2022-11-27T13:06:55;125.75;;;46.83;;
63818;SDS011;49970;54.976;73.248;2022-11-27T13:09:46;121.07;;;42.55;;
63818;SDS011;49970;54.976;73.248;2022-11-27T13:12:43;99.95;;;40.05;;
63818;SDS011;49970;54.976;73.248;2022-11-27T13:16:23;113.53;;;33.10;;
63818;SDS011;49970;54.976;73.248;2022-11-27T13:18:47;79.93;;;32.72;;
63818;SDS011;49970;54.976;73.248;2022-11-27T13:21:24;100.65;;;32.83;;
63818;SDS011;49970;54.976;73.248;2022-11-27T13:23:54;86.88;;;29.38;;
63818;SDS011;49970;54.976;73.248;2022-11-27T13:26:27;104.15;;;31.08;;
63818;SDS011;49970;54.976;73.248;2022-11-27T13:29:02;79.03;;;31.35;;
63818;SDS011;49970;54.976;73.248;2022-11-27T13:31:33;94.35;;;37.65;;
63818;SDS011;49970;54.976;73.248;2022-11-27T13:34:05;101.18;;;37.88;;
63818;SDS011;49970;54.976;73.248;2022-11-27T13:36:39;111.35;;;40.17;;
63818;SDS011;49970;54.976;73.248;2022-11-27T13:39:20;113.25;;;44.60;;
63818;SDS011;49970;54.976;73.248;2022-11-27T13:41:57;123.07;;;46.10;;
63818;SDS011;49970;54.976;73.248;2022-11-27T13:44:41;118.60;;;45.65;;
63818;SDS011;49970;54.976;73.248;2022-11-27T13:47:17;140.68;;;49.30;;
63818;SDS011;49970;54.976;73.248;2022-11-27T13:50:01;218.07;;;80.13;;
63818;SDS011;49970;54.976;73.248;2022-11-27T13:53:00;275.40;;;98.32;;
63818;SDS011;49970;54.976;73.248;2022-11-27T13:55:36;409.42;;;152.55;;
63818;SDS011;49970;54.976;73.248;2022-11-27T13:58:26;456.10;;;168.18;;
63818;SDS011;49970;54.976;73.248;2022-11-27T14:00:54;405.13;;;152.07;;
63818;SDS011;49970;54.976;73.248;2022-11-27T14:03:24;311.65;;;113.57;;
63818;SDS011;49970;54.976;73.248;2022-11-27T14:05:53;229.05;;;91.15;;
63818;SDS011;49970;54.976;73.248;2022-11-27T14:08:21;247.73;;;93.07;;
63818;SDS011;49970;54.976;73.248;2022-11-27T14:10:49;235.45;;;85.65;;
63818;SDS011;49970;54.976;73.248;2022-11-27T14:13:18;249.75;;;94.80;;
63818;SDS011;49970;54.976;73.248;2022-11-27T14:15:59;242.32;;;88.93;;
63818;SDS011;49970;54.976;73.248;2022-11-27T14:18:27;199.48;;;82.13;;
63818;SDS011;49970;54.976;73.248;2022-11-27T14:20:57;182.23;;;74.07;;
63818;SDS011;49970;54.976;73.248;2022-11-27T14:23:26;204.40;;;75.13;;
63818;SDS011;49970;54.976;73.248;2022-11-27T14:26:18;188.45;;;68.63;;
63818;SDS011;49970;54.976;73.248;2022-11-27T14:28:56;170.75;;;62.65;;
63818;SDS011;49970;54.976;73.248;2022-11-27T14:31:28;176.18;;;66.80;;
63818;SDS011;49970;54.976;73.248;2022-11-27T14:34:23;190.05;;;65.80;;
63818;SDS011;49970;54.976;73.248;2022-11-27T14:36:53;185.50;;;68.72;;
63818;SDS011;49970;54.976;73.248;2022-11-27T14:39:21;201.05;;;71.03;;
63818;SDS011;49970;54.976;73.248;2022-11-27T14:42:00;174.25;;;66.72;;
63818;SDS011;49970;54.976;73.248;2022-11-27T14:44:43;181.60;;;65.30;;
63818;SDS011;49970;54.976;73.248;2022-11-27T14:47:14;187.55;;;66.85;;
63818;SDS011;49970;54.976;73.248;2022-11-27T14:49:53;181.77;;;64.72;;
63818;SDS011;49970;54.976;73.248;2022-11-27T14:52:20;190.65;;;63.58;;
63818;SDS011;49970;54.976;73.248;2022-11-27T14:54:53;166.30;;;61.30;;
63818;SDS011;49970;54.976;73.248;2022-11-27T14:57:30;177.85;;;64.05;;
63818;SDS011;49970;54.976;73.248;2022-11-27T15:00:17;162.13;;;61.05;;
63818;SDS011;49970;54.976;73.248;2022-11-27T15:02:46;153.82;;;58.42;;
63818;SDS011;49970;54.976;73.248;2022-11-27T15:05:18;168.10;;;61.72;;
63818;SDS011;49970;54.976;73.248;2022-11-27T15:07:50;162.52;;;64.53;;
63818;SDS011;49970;54.976;73.248;2022-11-27T15:10:20;177.68;;;65.88;;
63818;SDS011;49970;54.976;73.248;2022-11-27T15:13:31;156.07;;;62.17;;
63818;SDS011;49970;54.976;73.248;2022-11-27T15:18:36;170.10;;;62.13;;
63818;SDS011;49970;54.976;73.248;2022-11-27T15:21:07;154.18;;;59.28;;
63818;SDS011;49970;54.976;73.248;2022-11-27T15:23:36;143.27;;;50.40;;
63818;SDS011;49970;54.976;73.248;2022-11-27T15:26:10;159.02;;;56.20;;
63818;SDS011;49970;54.976;73.248;2022-11-27T15:31:27;154.27;;;54.22;;
63818;SDS011;49970;54.976;73.248;2022-11-27T15:36:42;173.15;;;61.53;;
63818;SDS011;49970;54.976;73.248;2022-11-27T15:42:11;184.43;;;54.38;;
63818;SDS011;49970;54.976;73.248;2022-11-27T15:44:39;165.65;;;56.05;;
63818;SDS011;49970;54.976;73.248;2022-11-27T15:47:34;176.73;;;59.28;;
63818;SDS011;49970;54.976;73.248;2022-11-27T15:50:03;153.57;;;56.63;;
63818;SDS011;49970;54.976;73.248;2022-11-27T15:52:30;156.32;;;52.47;;
63818;SDS011;49970;54.976;73.248;2022-11-27T15:55:02;172.32;;;58.83;;
63818;SDS011;49970;54.976;73.248;2022-11-27T15:57:28;148.00;;;57.53;;
63818;SDS011;49970;54.976;73.248;2022-11-27T15:59:59;141.95;;;51.38;;
63818;SDS011;49970;54.976;73.248;2022-11-27T16:02:30;163.63;;;55.05;;
63818;SDS011;49970;54.976;73.248;2022-11-27T16:04:56;153.25;;;52.78;;
63818;SDS011;49970;54.976;73.248;2022-11-27T16:07:28;137.10;;;53.90;;
63818;SDS011;49970;54.976;73.248;2022-11-27T16:10:00;138.45;;;53.97;;
63818;SDS011;49970;54.976;73.248;2022-11-27T16:12:26;156.98;;;57.85;;
63818;SDS011;49970;54.976;73.248;2022-11-27T16:14:52;169.93;;;64.43;;
63818;SDS011;49970;54.976;73.248;2022-11-27T16:17:24;197.45;;;60.40;;
63818;SDS011;49970;54.976;73.248;2022-11-27T16:19:55;160.55;;;57.47;;
63818;SDS011;49970;54.976;73.248;2022-11-27T16:22:21;164.73;;;59.85;;
63818;SDS011;49970;54.976;73.248;2022-11-27T16:24:47;172.73;;;60.88;;
63818;SDS011;49970;54.976;73.248;2022-11-27T16:27:14;145.85;;;56.35;;
63818;SDS011;49970;54.976;73.248;2022-11-27T16:29:40;169.55;;;54.70;;
63818;SDS011;49970;54.976;73.248;2022-11-27T16:32:12;163.73;;;59.20;;
63818;SDS011;49970;54.976;73.248;2022-11-27T16:34:49;159.73;;;61.67;;
63818;SDS011;49970;54.976;73.248;2022-11-27T16:37:16;150.98;;;59.67;;
63818;SDS011;49970;54.976;73.248;2022-11-27T16:39:42;154.48;;;58.63;;